Time;durP1;ratioP1;P1;durP2;ratioP2;P2;SDS_P1;SDS_P2;PMS_P1;PMS_P2;Temp;Humidity;BMP_temperature;BMP_pressure;BME280_temperature;BME280_humidity;BME280_pressure;Samples;Min_cycle;Max_cycle;Signal;HPM_P1;HPM_P2
2023/04/30 00:01:40;;;;;;;;;;;;;;;10.92;96.77;102229.59;5292968;28;20205;-70
2023/04/30 00:04:11;;;;;;;;;;;;;;;10.89;97.73;102225.38;5266818;28;20286;-70
2023/04/30 00:06:42;;;;;;;;;;;;;;;10.87;96.48;102224.66;5289086;28;19926;-70
2023/04/30 00:09:13;;;;;;;;;;;;;;;10.85;100.00;102223.91;5292258;28;20336;-70
2023/04/30 00:11:44;;;;;;;;;;;;;;;10.82;100.00;102223.25;5294169;28;19936;-69
2023/04/30 00:14:16;;;;;;;;;;;;;;;10.81;98.34;102224.19;5298883;28;19920;-70
2023/04/30 00:16:47;;;;;;;;;;;;;;;10.82;99.24;102224.09;5294039;28;20368;-70
2023/04/30 00:19:18;;;;;;;;;;;;;;;10.81;97.59;102225.03;5297683;28;20568;-70
2023/04/30 00:21:49;;;;;;;;;;;;;;;10.79;98.07;102224.28;5297671;28;19916;-70
2023/04/30 00:24:20;;;;;;;;;;;;;;;10.78;100.00;102227.00;5297323;28;20007;-70
2023/04/30 00:26:51;;;;;;;;;;;;;;;10.77;100.00;102231.41;5301516;28;19920;-69
2023/04/30 00:29:22;;;;;;;;;;;;;;;10.78;96.73;102235.72;5291684;28;20808;-70
2023/04/30 00:31:54;;;;;;;;;;;;;;;10.73;100.00;102229.94;5298344;28;19958;-70
2023/04/30 00:34:25;;;;;;;;;;;;;;;10.70;100.00;102236.19;5303076;28;20193;-70
2023/04/30 00:36:56;;;;;;;;;;;;;;;10.65;100.00;102242.69;5278813;28;19915;-70
2023/04/30 00:39:27;;;;;;;;;;;;;;;10.62;100.00;102235.00;5296977;28;19916;-70
2023/04/30 00:41:58;;;;;;;;;;;;;;;10.61;100.00;102230.72;5295596;28;19916;-70
2023/04/30 00:44:30;;;;;;;;;;;;;;;10.63;100.00;102223.56;5301720;28;20022;-70
2023/04/30 00:47:01;;;;;;;;;;;;;;;10.51;100.00;102237.44;5296744;28;20313;-70
2023/04/30 00:49:32;;;;;;;;;;;;;;;10.51;100.00;102240.06;5296994;28;20061;-70
2023/04/30 00:52:04;;;;;;;;;;;;;;;10.47;100.00;102236.78;5298369;28;20361;-70
2023/04/30 00:54:35;;;;;;;;;;;;;;;10.40;100.00;102231.09;5283765;28;19927;-70
2023/04/30 00:57:08;;;;;;;;;;;;;;;10.47;100.00;102237.63;5277396;28;20121;-70
2023/04/30 00:59:40;;;;;;;;;;;;;;;10.44;100.00;102231.75;5293866;28;19912;-70
2023/04/30 01:02:12;;;;;;;;;;;;;;;10.36;100.00;102232.22;5276188;28;20443;-70
2023/04/30 01:04:43;;;;;;;;;;;;;;;10.40;100.00;102231.09;5298094;28;19916;-70
2023/04/30 01:07:14;;;;;;;;;;;;;;;10.43;100.00;102232.69;5295249;28;19972;-70
2023/04/30 01:09:45;;;;;;;;;;;;;;;10.40;100.00;102220.63;5297991;28;20281;-70
2023/04/30 01:12:25;;;;;;;;;;;;;;;10.40;100.00;102225.84;5283036;28;19936;-70
2023/04/30 01:15:15;;;;;;;;;;;;;;;10.39;100.00;102225.97;5300171;28;19951;-70
2023/04/30 01:18:02;;;;;;;;;;;;;;;10.35;100.00;102219.22;5302440;28;19922;-70
2023/04/30 01:20:37;;;;;;;;;;;;;;;10.34;100.00;102222.75;5287267;28;20390;-69
2023/04/30 01:23:47;;;;;;;;;;;;;;;10.31;100.00;102226.44;5303989;28;20182;-69
2023/04/30 01:26:42;;;;;;;;;;;;;;;10.25;100.00;102226.78;5304645;28;19911;-70
2023/04/30 01:29:15;;;;;;;;;;;;;;;10.20;100.00;102220.97;5296370;28;19915;-69
2023/04/30 01:31:46;;;;;;;;;;;;;;;10.19;100.00;102224.50;5282407;28;19923;-70
2023/04/30 01:34:17;;;;;;;;;;;;;;;10.16;100.00;102229.97;5302526;28;19920;-70
2023/04/30 01:37:14;;;;;;;;;;;;;;;10.12;100.00;102229.31;5307414;28;20434;-70
2023/04/30 01:40:05;;;;;;;;;;;;;;;10.12;100.00;102223.22;5294755;28;19927;-69
2023/04/30 01:42:54;;;;;;;;;;;;;;;10.11;100.00;102226.75;5303937;28;19916;-70
2023/04/30 01:45:29;;;;;;;;;;;;;;;10.07;100.00;102227.88;5292963;28;19967;-70
2023/04/30 01:48:13;;;;;;;;;;;;;;;10.05;100.00;102227.16;5299899;28;20008;-70
2023/04/30 01:50:49;;;;;;;;;;;;;;;10.03;100.00;102229.00;5298804;28;20008;-70
2023/04/30 01:53:23;;;;;;;;;;;;;;;10.02;100.00;102222.94;5298449;28;20284;-70
2023/04/30 01:56:00;;;;;;;;;;;;;;;10.01;100.00;102223.03;5299457;28;19959;-70
2023/04/30 01:58:33;;;;;;;;;;;;;;;10.01;100.00;102228.28;5297707;28;20469;-70
2023/04/30 02:01:04;;;;;;;;;;;;;;;9.97;100.00;102223.22;5303816;28;19915;-70
2023/04/30 02:03:35;;;;;;;;;;;;;;;9.93;100.00;102229.56;5300290;28;20609;-70
2023/04/30 02:06:06;;;;;;;;;;;;;;;9.91;100.00;102230.59;5294370;28;19931;-69
2023/04/30 02:08:38;;;;;;;;;;;;;;;9.76;100.00;102237.56;5300416;28;19915;-69
2023/04/30 02:11:09;;;;;;;;;;;;;;;9.87;100.00;102243.00;5303337;28;19915;-69
2023/04/30 02:13:40;;;;;;;;;;;;;;;9.87;100.00;102229.09;5296722;28;19911;-69
2023/04/30 02:16:11;;;;;;;;;;;;;;;9.85;100.00;102236.16;5301576;28;20262;-70
2023/04/30 02:18:43;;;;;;;;;;;;;;;9.84;100.00;102235.34;5296375;28;19958;-69
2023/04/30 02:21:14;;;;;;;;;;;;;;;9.84;100.00;102237.94;5293192;28;20015;-70
2023/04/30 02:23:46;;;;;;;;;;;;;;;9.81;100.00;102239.91;5294472;28;19918;-70
2023/04/30 02:26:17;;;;;;;;;;;;;;;9.79;100.00;102233.94;5300551;28;19915;-70
2023/04/30 02:28:48;;;;;;;;;;;;;;;9.73;100.00;102242.97;5297858;28;19915;-70
2023/04/30 02:31:19;;;;;;;;;;;;;;;9.71;100.00;102239.63;5296797;28;19916;-69
2023/04/30 02:33:50;;;;;;;;;;;;;;;9.70;100.00;102237.94;5302015;28;20422;-70
2023/04/30 02:36:22;;;;;;;;;;;;;;;9.70;100.00;102236.16;5300144;28;20381;-69
2023/04/30 02:38:53;;;;;;;;;;;;;;;9.67;100.00;102235.50;5304180;28;19912;-70
2023/04/30 02:41:25;;;;;;;;;;;;;;;9.62;100.00;102234.91;5297211;28;19916;-69
2023/04/30 02:43:56;;;;;;;;;;;;;;;9.62;100.00;102230.56;5296252;28;19926;-70
2023/04/30 02:46:27;;;;;;;;;;;;;;;9.58;100.00;102233.41;5299770;28;20380;-70
2023/04/30 02:48:59;;;;;;;;;;;;;;;9.55;100.00;102231.00;5299157;28;20076;-70
2023/04/30 02:51:31;;;;;;;;;;;;;;;9.52;100.00;102228.56;5299014;28;19919;-69
2023/04/30 02:54:02;;;;;;;;;;;;;;;9.49;100.00;102233.03;5299322;28;19959;-69
2023/04/30 02:56:34;;;;;;;;;;;;;;;9.44;100.00;102227.22;5295290;28;19998;-69
2023/04/30 02:59:05;;;;;;;;;;;;;;;9.41;100.00;102226.56;5300111;28;19955;-69
2023/04/30 03:01:36;;;;;;;;;;;;;;;9.37;100.00;102233.72;5296368;28;19915;-69
2023/04/30 03:04:07;;;;;;;;;;;;;;;9.34;100.00;102228.69;5301959;28;19916;-69
2023/04/30 03:06:38;;;;;;;;;;;;;;;9.32;100.00;102225.31;5298681;28;20040;-69
2023/04/30 03:09:09;;;;;;;;;;;;;;;9.27;100.00;102220.31;5298911;28;19915;-69
2023/04/30 03:11:41;;;;;;;;;;;;;;;9.23;100.00;102220.59;5298401;28;20380;-69
2023/04/30 03:14:12;;;;;;;;;;;;;;;9.23;100.00;102215.38;5295959;28;19955;-69
2023/04/30 03:16:43;;;;;;;;;;;;;;;9.21;100.00;102215.47;5299365;28;19934;-69
2023/04/30 03:19:14;;;;;;;;;;;;;;;9.20;100.00;102212.91;5279811;28;19962;-69
2023/04/30 03:21:45;;;;;;;;;;;;;;;9.18;100.00;102220.03;5298449;28;20026;-69
2023/04/30 03:24:17;;;;;;;;;;;;;;;9.16;100.00;102216.66;5281451;28;19911;-69
2023/04/30 03:26:48;;;;;;;;;;;;;;;9.13;100.00;102219.44;5301163;28;19923;-69
2023/04/30 03:29:19;;;;;;;;;;;;;;;9.09;100.00;102210.06;5295889;28;19908;-69
2023/04/30 03:31:51;;;;;;;;;;;;;;;9.07;100.00;102210.19;5295608;28;19962;-69
2023/04/30 03:34:22;;;;;;;;;;;;;;;9.05;100.00;102219.88;5292133;28;19916;-70
2023/04/30 03:36:53;;;;;;;;;;;;;;;9.04;100.00;102217.34;5295092;28;20487;-69
2023/04/30 03:39:24;;;;;;;;;;;;;;;9.04;100.00;102219.97;5302920;28;20006;-69
2023/04/30 03:41:55;;;;;;;;;;;;;;;9.04;100.00;102222.56;5295679;28;19915;-69
2023/04/30 03:44:26;;;;;;;;;;;;;;;9.02;100.00;102214.84;5295500;28;19916;-70
2023/04/30 03:46:58;;;;;;;;;;;;;;;9.01;100.00;102223.56;5277982;28;19927;-69
2023/04/30 03:49:29;;;;;;;;;;;;;;;9.00;100.00;102227.13;5296700;28;19920;-70
2023/04/30 03:52:00;;;;;;;;;;;;;;;8.99;100.00;102226.28;5301315;28;19912;-70
2023/04/30 03:54:32;;;;;;;;;;;;;;;8.91;100.00;102225.88;5298086;28;20396;-69
2023/04/30 03:57:04;;;;;;;;;;;;;;;8.90;100.00;102226.81;5302210;28;20317;-69
2023/04/30 03:59:35;;;;;;;;;;;;;;;8.89;100.00;102230.34;5295234;28;20419;-70
2023/04/30 04:02:07;;;;;;;;;;;;;;;8.87;100.00;102226.97;5283753;28;20042;-69
2023/04/30 04:04:38;;;;;;;;;;;;;;;8.91;100.00;102238.13;5297850;28;20377;-69
2023/04/30 04:07:10;;;;;;;;;;;;;;;8.88;100.00;102238.28;5291960;28;19920;-69
2023/04/30 04:09:41;;;;;;;;;;;;;;;8.88;100.00;102236.50;5295262;28;19912;-70
2023/04/30 04:12:12;;;;;;;;;;;;;;;8.86;100.00;102234.88;5294932;28;19958;-69
2023/04/30 04:14:44;;;;;;;;;;;;;;;8.86;100.00;102240.13;5299585;28;19919;-70
2023/04/30 04:17:15;;;;;;;;;;;;;;;8.87;100.00;102239.22;5279799;28;19920;-69
2023/04/30 04:19:46;;;;;;;;;;;;;;;8.86;100.00;102237.50;5297644;28;19965;-69
2023/04/30 04:22:18;;;;;;;;;;;;;;;8.86;100.00;102240.13;5297122;28;19967;-69
2023/04/30 04:24:50;;;;;;;;;;;;;;;8.84;100.00;102244.59;5300488;28;20043;-69
2023/04/30 04:27:21;;;;;;;;;;;;;;;8.85;100.00;102246.28;5299295;28;20014;-69
2023/04/30 04:29:53;;;;;;;;;;;;;;;8.85;100.00;102248.91;5293010;28;19985;-69
2023/04/30 04:32:24;;;;;;;;;;;;;;;8.87;100.00;102250.50;5294997;28;20027;-70
2023/04/30 04:34:56;;;;;;;;;;;;;;;8.87;100.00;102247.91;5295440;28;20223;-69
2023/04/30 04:37:27;;;;;;;;;;;;;;;8.86;100.00;102246.19;5299564;28;19923;-69
2023/04/30 04:39:58;;;;;;;;;;;;;;;8.87;100.00;102247.91;5296786;28;19916;-69
2023/04/30 04:42:29;;;;;;;;;;;;;;;8.89;100.00;102256.47;5294911;28;19920;-70
2023/04/30 04:45:02;;;;;;;;;;;;;;;8.89;100.00;102256.47;5303723;28;20329;-70
2023/04/30 04:47:33;;;;;;;;;;;;;;;8.90;100.00;102252.09;5301983;28;20551;-70
2023/04/30 04:50:05;;;;;;;;;;;;;;;8.89;100.00;102259.09;5282081;28;19962;-69
2023/04/30 04:52:37;;;;;;;;;;;;;;;8.92;100.00;102256.31;5302371;28;19922;-70
2023/04/30 04:55:10;;;;;;;;;;;;;;;8.92;100.00;102264.16;5302975;28;20515;-70
2023/04/30 04:57:42;;;;;;;;;;;;;;;8.93;100.00;102262.38;5302249;28;19970;-69
2023/04/30 05:00:13;;;;;;;;;;;;;;;8.90;100.00;102258.19;5295976;28;19957;-69
2023/04/30 05:02:44;;;;;;;;;;;;;;;8.91;100.00;102252.03;5296147;28;20517;-69
2023/04/30 05:05:16;;;;;;;;;;;;;;;8.94;100.00;102254.47;5299333;28;19916;-68
2023/04/30 05:07:49;;;;;;;;;;;;;;;8.96;100.00;102254.38;5300873;28;19915;-69
2023/04/30 05:10:20;;;;;;;;;;;;;;;9.00;100.00;102258.50;5291238;28;19922;-69
2023/04/30 05:12:51;;;;;;;;;;;;;;;9.02;100.00;102254.88;5309152;28;19911;-69
2023/04/30 05:15:23;;;;;;;;;;;;;;;9.08;100.00;102255.47;5301072;28;20308;-69
2023/04/30 05:17:54;;;;;;;;;;;;;;;9.08;100.00;102258.91;5296084;28;20069;-69
2023/04/30 05:20:25;;;;;;;;;;;;;;;9.08;100.00;102260.69;5297837;28;19916;-69
2023/04/30 05:22:56;;;;;;;;;;;;;;;9.10;100.00;102253.63;5297598;28;20050;-69
2023/04/30 05:25:28;;;;;;;;;;;;;;;9.15;100.00;102251.56;5282337;28;19938;-69
2023/04/30 05:27:59;;;;;;;;;;;;;;;9.10;100.00;102257.06;5293453;28;19959;-69
2023/04/30 05:30:31;;;;;;;;;;;;;;;9.15;100.00;102257.63;5301104;28;19912;-69
2023/04/30 05:33:02;;;;;;;;;;;;;;;9.19;100.00;102253.09;5293683;28;20136;-70
2023/04/30 05:35:34;;;;;;;;;;;;;;;9.24;100.00;102256.28;5295831;28;20007;-69
2023/04/30 05:38:06;;;;;;;;;;;;;;;9.27;100.00;102261.34;5296529;28;20334;-69
2023/04/30 05:40:37;;;;;;;;;;;;;;;9.32;100.00;102248.00;5293764;28;19912;-69
2023/04/30 05:43:08;;;;;;;;;;;;;;;9.34;100.00;102259.22;5294029;28;20400;-69
2023/04/30 05:45:39;;;;;;;;;;;;;;;9.41;100.00;102257.94;5294836;28;19916;-69
2023/04/30 05:48:10;;;;;;;;;;;;;;;9.44;100.00;102248.16;5300754;28;20019;-69
2023/04/30 05:50:42;;;;;;;;;;;;;;;9.53;100.00;102256.41;5302485;28;19916;-69
2023/04/30 05:53:13;;;;;;;;;;;;;;;9.54;100.00;102253.69;5298946;28;19947;-69
2023/04/30 05:55:44;;;;;;;;;;;;;;;9.56;100.00;102257.06;5304843;28;19916;-69
2023/04/30 05:58:15;;;;;;;;;;;;;;;9.60;100.00;102257.72;5295537;28;20335;-69
2023/04/30 06:00:53;;;;;;;;;;;;;;;9.68;100.00;102258.97;5302524;28;19923;-69
2023/04/30 06:03:24;;;;;;;;;;;;;;;9.69;100.00;102254.56;5297355;28;20022;-69
2023/04/30 06:05:56;;;;;;;;;;;;;;;9.74;100.00;102260.38;5305104;28;20372;-69
2023/04/30 06:08:28;;;;;;;;;;;;;;;9.89;100.00;102256.03;5294926;28;19912;-69
2023/04/30 06:11:00;;;;;;;;;;;;;;;10.01;100.00;102255.28;5296406;28;19915;-69
2023/04/30 06:13:31;;;;;;;;;;;;;;;10.11;100.00;102250.31;5307349;28;20312;-69
2023/04/30 06:16:02;;;;;;;;;;;;;;;10.21;100.00;102251.47;5296148;28;20342;-69
2023/04/30 06:18:33;;;;;;;;;;;;;;;10.32;100.00;102246.44;5299298;28;19929;-69
2023/04/30 06:21:04;;;;;;;;;;;;;;;10.40;100.00;102246.81;5296796;28;20369;-69
2023/04/30 06:23:36;;;;;;;;;;;;;;;10.50;100.00;102248.88;5301245;28;20402;-69
2023/04/30 06:26:07;;;;;;;;;;;;;;;10.63;100.00;102248.00;5300043;28;19912;-70
2023/04/30 06:28:39;;;;;;;;;;;;;;;10.72;100.00;102238.75;5298874;28;20307;-69
2023/04/30 06:31:10;;;;;;;;;;;;;;;10.83;100.00;102246.72;5301439;28;19922;-69
2023/04/30 06:33:41;;;;;;;;;;;;;;;10.95;100.00;102245.97;5295644;28;20018;-70
2023/04/30 06:36:12;;;;;;;;;;;;;;;11.08;100.00;102245.19;5281601;28;19920;-69
2023/04/30 06:38:44;;;;;;;;;;;;;;;11.18;100.00;102252.38;5298518;28;19976;-70
2023/04/30 06:41:15;;;;;;;;;;;;;;;11.28;100.00;102247.34;5297813;28;19919;-69
2023/04/30 06:43:47;;;;;;;;;;;;;;;11.41;100.00;102247.41;5297447;28;19908;-70
2023/04/30 06:46:18;;;;;;;;;;;;;;;11.56;100.00;102254.25;5301946;28;19927;-70
2023/04/30 06:48:49;;;;;;;;;;;;;;;11.64;100.00;102251.13;5296311;28;19925;-70
2023/04/30 06:51:20;;;;;;;;;;;;;;;11.71;100.00;102252.38;5300544;28;19920;-70
2023/04/30 06:53:52;;;;;;;;;;;;;;;11.84;100.00;102253.25;5294167;28;19923;-70
2023/04/30 06:56:23;;;;;;;;;;;;;;;11.97;100.00;102255.03;5293736;28;20447;-70
2023/04/30 06:58:55;;;;;;;;;;;;;;;12.12;100.00;102251.38;5295800;28;19920;-70
2023/04/30 07:01:26;;;;;;;;;;;;;;;12.22;100.00;102252.44;5298108;28;20673;-70
2023/04/30 07:03:57;;;;;;;;;;;;;;;12.32;100.00;102256.09;5285033;28;19969;-70
2023/04/30 07:06:29;;;;;;;;;;;;;;;12.43;100.00;102254.53;5294322;28;19984;-70
2023/04/30 07:09:01;;;;;;;;;;;;;;;12.49;100.00;102260.16;5292556;28;19912;-70
2023/04/30 07:11:32;;;;;;;;;;;;;;;12.57;100.00;102257.00;5290657;28;19939;-70
2023/04/30 07:14:03;;;;;;;;;;;;;;;12.71;100.00;102259.50;5290344;28;19916;-69
2023/04/30 07:16:34;;;;;;;;;;;;;;;12.82;100.00;102261.38;5277588;28;20204;-70
2023/04/30 07:19:05;;;;;;;;;;;;;;;13.03;100.00;102251.06;5302457;28;19950;-70
2023/04/30 07:21:36;;;;;;;;;;;;;;;13.18;100.00;102252.56;5297630;28;20356;-70
2023/04/30 07:24:08;;;;;;;;;;;;;;;13.30;100.00;102258.78;5306188;28;20010;-70
2023/04/30 07:26:40;;;;;;;;;;;;;;;13.32;100.00;102262.97;5301514;28;19923;-70
2023/04/30 07:29:11;;;;;;;;;;;;;;;13.53;100.00;102247.38;5307029;28;19916;-70
2023/04/30 07:31:43;;;;;;;;;;;;;;;13.63;100.00;102252.78;5293285;28;20445;-70
2023/04/30 07:34:14;;;;;;;;;;;;;;;13.79;100.00;102245.41;5275917;28;19920;-70
2023/04/30 07:36:49;;;;;;;;;;;;;;;13.95;100.00;102245.06;5295696;28;19924;-70
2023/04/30 07:39:20;;;;;;;;;;;;;;;13.99;100.00;102245.69;5294858;28;19996;-70
2023/04/30 07:41:52;;;;;;;;;;;;;;;14.17;100.00;102246.03;5295533;28;20014;-70
2023/04/30 07:44:23;;;;;;;;;;;;;;;14.28;100.00;102246.91;5292962;28;19912;-70
2023/04/30 07:46:54;;;;;;;;;;;;;;;14.39;100.00;102238.13;5292297;28;19922;-70
2023/04/30 07:49:26;;;;;;;;;;;;;;;14.49;100.00;102240.88;5296714;28;19916;-70
2023/04/30 07:51:57;;;;;;;;;;;;;;;14.53;99.59;102245.81;5290694;28;19958;-70
2023/04/30 07:54:28;;;;;;;;;;;;;;;14.65;100.00;102243.16;5299812;28;20428;-70
2023/04/30 07:56:59;;;;;;;;;;;;;;;14.65;94.44;102246.66;5293720;28;20293;-70
2023/04/30 07:59:30;;;;;;;;;;;;;;;14.89;97.96;102237.72;5298308;28;20019;-70
2023/04/30 08:02:02;;;;;;;;;;;;;;;15.06;98.36;102237.19;5294680;28;19919;-70
2023/04/30 08:04:33;;;;;;;;;;;;;;;15.14;94.83;102242.69;5273521;28;20704;-70
2023/04/30 08:07:05;;;;;;;;;;;;;;;15.26;96.34;102248.75;5299623;28;19911;-70
2023/04/30 08:09:36;;;;;;;;;;;;;;;15.45;94.77;102248.91;5293280;28;19931;-70
2023/04/30 08:12:08;;;;;;;;;;;;;;;15.54;91.95;102239.41;5295156;28;19977;-70
2023/04/30 08:14:39;;;;;;;;;;;;;;;15.64;92.54;102248.19;5293895;28;19920;-70
2023/04/30 08:17:10;;;;;;;;;;;;;;;15.64;93.99;102239.44;5300155;28;19919;-70
2023/04/30 08:19:42;;;;;;;;;;;;;;;15.79;91.29;102244.28;5296007;28;19995;-70
2023/04/30 08:22:13;;;;;;;;;;;;;;;15.96;93.59;102245.53;5292717;28;20004;-70
2023/04/30 08:24:44;;;;;;;;;;;;;;;16.13;89.52;102241.41;5284069;28;19916;-70
2023/04/30 08:27:15;;;;;;;;;;;;;;;16.30;90.50;102245.25;5297037;28;20343;-71
2023/04/30 08:29:47;;;;;;;;;;;;;;;16.47;86.64;102241.13;5299166;28;20312;-71
2023/04/30 08:32:18;;;;;;;;;;;;;;;16.66;83.54;102248.28;5289966;28;19923;-70
2023/04/30 08:34:50;;;;;;;;;;;;;;;16.90;86.30;102242.69;5294689;28;19927;-70
2023/04/30 08:37:21;;;;;;;;;;;;;;;17.02;88.75;102236.28;5297102;28;19957;-70
2023/04/30 08:39:53;;;;;;;;;;;;;;;17.11;88.64;102237.25;5302349;28;20268;-70
2023/04/30 08:42:28;;;;;;;;;;;;;;;17.17;87.56;102232.22;5295608;28;20010;-71
2023/04/30 08:45:00;;;;;;;;;;;;;;;17.31;86.84;102238.06;5298857;28;19923;-70
2023/04/30 08:47:31;;;;;;;;;;;;;;;17.37;83.15;102242.81;5297894;28;20439;-70
2023/04/30 08:50:04;;;;;;;;;;;;;;;17.52;85.05;102236.94;5295416;28;19916;-71
2023/04/30 08:52:36;;;;;;;;;;;;;;;17.66;79.80;102235.66;5298090;28;19919;-70
2023/04/30 08:55:07;;;;;;;;;;;;;;;17.72;86.08;102229.78;5302859;28;19923;-70
2023/04/30 08:57:39;;;;;;;;;;;;;;;17.84;78.91;102242.91;5297369;28;19915;-70
2023/04/30 09:00:10;;;;;;;;;;;;;;;17.94;79.19;102228.66;5297608;28;20427;-70
2023/04/30 09:02:41;;;;;;;;;;;;;;;18.08;83.19;102232.66;5302479;28;19959;-71
2023/04/30 09:05:13;;;;;;;;;;;;;;;18.19;80.01;102226.34;5294904;28;20373;-71
2023/04/30 09:07:46;;;;;;;;;;;;;;;18.28;78.28;102228.09;5292815;28;19916;-71
2023/04/30 09:10:24;;;;;;;;;;;;;;;18.35;76.09;102234.50;5302426;28;20257;-71
2023/04/30 09:13:00;;;;;;;;;;;;;;;18.32;68.37;102226.81;5284352;28;19971;-71
2023/04/30 09:15:32;;;;;;;;;;;;;;;18.48;81.57;102227.00;5283555;28;19924;-71
2023/04/30 09:18:06;;;;;;;;;;;;;;;18.61;75.15;102231.16;5299747;28;19938;-71
2023/04/30 09:20:51;;;;;;;;;;;;;;;18.63;70.40;102229.16;5299115;28;20538;-71
2023/04/30 09:23:23;;;;;;;;;;;;;;;18.58;66.11;102229.63;5296090;28;19954;-71
2023/04/30 09:25:55;;;;;;;;;;;;;;;18.63;66.62;102229.16;5301086;28;20355;-71
2023/04/30 09:28:27;;;;;;;;;;;;;;;18.69;70.55;102232.06;5300447;28;21207;-71
2023/04/30 09:30:58;;;;;;;;;;;;;;;18.84;70.43;102220.97;5293983;28;20395;-71
2023/04/30 09:33:44;;;;;;;;;;;;;;;18.92;71.78;102221.88;5298743;28;19920;-71
2023/04/30 09:36:15;;;;;;;;;;;;;;;19.08;70.50;102233.63;5298597;28;19974;-71
2023/04/30 09:38:47;;;;;;;;;;;;;;;19.22;71.91;102230.44;5303669;28;20010;-71
2023/04/30 09:41:22;;;;;;;;;;;;;;;19.30;66.80;102229.69;5297226;28;20837;-71
2023/04/30 09:43:54;;;;;;;;;;;;;;;19.34;71.52;102223.06;5285036;28;20175;-71
2023/04/30 09:46:32;;;;;;;;;;;;;;;19.49;70.46;102226.00;5302445;28;19912;-71
2023/04/30 09:49:04;;;;;;;;;;;;;;;19.45;65.84;102221.00;5296440;28;19930;-73
2023/04/30 09:51:52;;;;;;;;;;;;;;;19.50;69.02;102223.19;5298693;28;20160;-71
2023/04/30 09:54:25;;;;;;;;;;;;;;;19.54;70.32;102224.53;5298824;28;19916;-71
2023/04/30 09:56:58;;;;;;;;;;;;;;;19.58;68.50;102217.91;5277080;28;19991;-71
2023/04/30 09:59:30;;;;;;;;;;;;;;;19.62;65.12;102218.47;5299146;28;19915;-71
2023/04/30 10:02:02;;;;;;;;;;;;;;;19.65;66.55;102211.03;5299570;28;19912;-72
2023/04/30 10:04:35;;;;;;;;;;;;;;;19.67;64.93;102219.69;5303629;28;20380;-72
2023/04/30 10:07:09;;;;;;;;;;;;;;;19.69;62.20;102212.38;5294015;28;19916;-71
2023/04/30 10:09:47;;;;;;;;;;;;;;;19.75;67.30;102202.94;5298264;28;20079;-71
2023/04/30 10:12:24;;;;;;;;;;;;;;;19.89;64.26;102212.19;5300613;28;19915;-71
2023/04/30 10:15:03;;;;;;;;;;;;;;;20.02;62.23;102201.94;5294116;28;19931;-71
2023/04/30 10:17:39;;;;;;;;;;;;;;;20.02;64.78;102209.91;5291437;28;19919;-71
2023/04/30 10:20:11;;;;;;;;;;;;;;;20.01;60.57;102202.94;5299291;28;19989;-72
2023/04/30 10:22:43;;;;;;;;;;;;;;;20.01;61.32;102202.09;5294874;28;19912;-71
2023/04/30 10:25:15;;;;;;;;;;;;;;;20.07;59.92;102204.09;5296520;28;20161;-72
2023/04/30 10:27:46;;;;;;;;;;;;;;;20.18;66.97;102199.31;5294467;28;19921;-72
2023/04/30 10:30:17;;;;;;;;;;;;;;;20.23;59.89;102195.34;5299321;28;19922;-72
2023/04/30 10:33:02;;;;;;;;;;;;;;;20.28;61.32;102190.41;5294446;28;20010;-72
2023/04/30 10:35:54;;;;;;;;;;;;;;;20.38;56.79;102186.59;5283865;28;19934;-72
2023/04/30 10:38:29;;;;;;;;;;;;;;;20.39;58.95;102187.44;5285350;28;20036;-72
2023/04/30 10:41:01;;;;;;;;;;;;;;;20.45;58.28;102181.44;5297138;28;19965;-72
2023/04/30 10:43:34;;;;;;;;;;;;;;;20.47;59.88;102174.16;5293854;28;20035;-71
2023/04/30 10:46:07;;;;;;;;;;;;;;;20.42;57.84;102179.13;5300932;28;19926;-71
2023/04/30 10:48:38;;;;;;;;;;;;;;;20.39;57.78;102179.44;5279428;28;19916;-71
2023/04/30 10:51:09;;;;;;;;;;;;;;;20.45;61.96;102173.47;5303004;28;20319;-71
2023/04/30 10:53:41;;;;;;;;;;;;;;;20.57;58.49;102171.34;5297409;28;19915;-71
2023/04/30 10:56:12;;;;;;;;;;;;;;;20.70;58.23;102162.91;5296849;28;20028;-71
2023/04/30 10:58:44;;;;;;;;;;;;;;;20.72;59.53;102164.41;5297980;28;19947;-72
2023/04/30 11:01:16;;;;;;;;;;;;;;;20.64;57.14;102154.56;5275797;28;19993;-71
2023/04/30 11:04:06;;;;;;;;;;;;;;;20.47;58.61;102157.34;5296583;28;20332;-71
2023/04/30 11:06:52;;;;;;;;;;;;;;;20.50;59.95;102143.75;5298157;28;19950;-70
2023/04/30 11:09:36;;;;;;;;;;;;;;;20.59;55.32;102148.06;5293025;28;19916;-71
2023/04/30 11:12:11;;;;;;;;;;;;;;;20.64;59.50;102148.41;5291542;28;19915;-71
2023/04/30 11:14:43;;;;;;;;;;;;;;;20.69;56.53;102132.78;5298673;28;19920;-71
2023/04/30 11:17:22;;;;;;;;;;;;;;;20.81;51.36;102138.63;5290846;28;19912;-71
2023/04/30 11:19:53;;;;;;;;;;;;;;;20.88;51.80;102129.78;5297053;28;19916;-71
2023/04/30 11:22:25;;;;;;;;;;;;;;;20.93;51.69;102134.59;5297871;28;19922;-71
2023/04/30 11:24:59;;;;;;;;;;;;;;;20.92;50.34;102135.63;5298358;28;19915;-71
2023/04/30 11:27:31;;;;;;;;;;;;;;;21.00;53.37;102124.94;5294468;28;20015;-71
2023/04/30 11:30:08;;;;;;;;;;;;;;;20.93;51.37;102120.47;5294678;28;20003;-72
2023/04/30 11:32:41;;;;;;;;;;;;;;;20.74;52.17;102114.47;5291529;28;19927;-71
2023/04/30 11:35:16;;;;;;;;;;;;;;;20.73;53.34;102127.97;5292940;28;19920;-71
2023/04/30 11:37:47;;;;;;;;;;;;;;;20.73;48.67;102115.47;5296577;28;19912;-71
2023/04/30 11:40:19;;;;;;;;;;;;;;;20.85;52.17;102106.13;5297833;28;19916;-71
2023/04/30 11:42:50;;;;;;;;;;;;;;;20.86;47.00;102098.97;5299598;28;20651;-71
2023/04/30 11:45:22;;;;;;;;;;;;;;;20.91;48.35;102099.31;5295445;28;19923;-71
2023/04/30 11:47:53;;;;;;;;;;;;;;;21.10;48.19;102098.97;5299909;28;19916;-71
2023/04/30 11:50:27;;;;;;;;;;;;;;;21.03;44.51;102105.97;5297498;28;19919;-74
2023/04/30 11:53:28;;;;;;;3.67;2.88;;;;;;;20.34;47.78;102102.75;5293397;27;20444;-71
2023/04/30 11:56:02;;;;;;;3.65;3.35;;;;;;;20.63;46.40;102089.00;5296907;28;20504;-71
2023/04/30 11:58:37;;;;;;;3.90;3.10;;;;;;;20.61;47.11;102091.00;5282679;28;20043;-71
2023/04/30 12:01:09;;;;;;;3.70;3.00;;;;;;;20.70;44.57;102089.16;5281888;28;20520;-71
2023/04/30 12:03:45;;;;;;;3.58;3.28;;;;;;;20.83;44.34;102088.66;5279281;28;20146;-71
2023/04/30 12:06:26;;;;;;;3.95;3.45;;;;;;;20.91;46.10;102088.66;5280508;28;20028;-71
2023/04/30 12:09:17;;;;;;;3.53;2.80;;;;;;;20.92;42.47;102086.84;5282846;28;20036;-71
2023/04/30 12:11:48;;;;;;;3.78;2.40;;;;;;;21.00;42.41;102077.00;5283385;28;20078;-70
2023/04/30 12:14:23;;;;;;;5.17;2.60;;;;;;;21.26;43.99;102084.78;5284573;28;20036;-71
2023/04/30 12:16:55;;;;;;;3.40;2.92;;;;;;;21.06;42.22;102076.31;5284912;28;20024;-71
2023/04/30 12:19:26;;;;;;;3.30;2.90;;;;;;;21.35;44.14;102077.63;5286067;28;20024;-72
2023/04/30 12:21:58;;;;;;;2.83;2.47;;;;;;;21.55;43.50;102078.03;5283584;28;20025;-71
2023/04/30 12:24:30;;;;;;;3.67;3.08;;;;;;;21.33;42.82;102079.63;5283290;28;20035;-71
2023/04/30 12:27:02;;;;;;;3.50;3.20;;;;;;;21.56;42.44;102069.06;5284177;28;20570;-72
2023/04/30 12:29:33;;;;;;;3.57;2.80;;;;;;;21.62;41.54;102069.19;5282424;28;20089;-72
2023/04/30 12:32:04;;;;;;;3.10;2.60;;;;;;;21.55;42.77;102068.19;5283740;28;20028;-73
2023/04/30 12:34:37;;;;;;;5.30;3.13;;;;;;;21.71;40.23;102061.16;5284090;28;20066;-72
2023/04/30 12:37:08;;;;;;;3.60;3.20;;;;;;;21.73;39.94;102069.81;5279869;28;20032;-73
2023/04/30 12:39:40;;;;;;;4.00;2.90;;;;;;;21.73;41.32;102056.47;5284163;28;20887;-72
2023/04/30 12:42:11;;;;;;;3.10;2.30;;;;;;;21.93;40.11;102054.19;5282645;28;20040;-72
2023/04/30 12:44:43;;;;;;;2.83;2.10;;;;;;;22.21;40.65;102052.72;5284779;28;20115;-72
2023/04/30 12:47:15;;;;;;;4.00;2.42;;;;;;;22.05;40.09;102045.63;5282051;28;20032;-73
2023/04/30 12:49:46;;;;;;;2.97;2.20;;;;;;;21.71;38.99;102050.50;5284764;28;20040;-72
2023/04/30 12:52:22;;;;;;;4.20;2.33;;;;;;;21.58;41.18;102054.53;5296289;28;20039;-73
2023/04/30 12:54:54;;;;;;;4.50;2.22;;;;;;;21.26;42.33;102042.13;5285111;28;20026;-72
2023/04/30 12:57:26;;;;;;;2.23;1.93;;;;;;;21.21;41.92;102049.78;5303337;28;20027;-72